Time;durP1;ratioP1;P1;durP2;ratioP2;P2;SDS_P1;SDS_P2;PMS_P1;PMS_P2;Temp;Humidity;BMP_temperature;BMP_pressure;BME280_temperature;BME280_humidity;BME280_pressure;Samples;Min_cycle;Max_cycle;Signal;HPM_P1;HPM_P2
2021/05/22 00:02:39;;;;;;;;;;;;;;;22.17;61.87;100624.59;5068579;28;1308;-66
2021/05/22 00:05:25;;;;;;;;;;;;;;;22.17;61.98;100630.75;5068881;28;1287;-67
2021/05/22 00:08:10;;;;;;;;;;;;;;;22.17;61.91;100628.09;5068718;28;1115;-67
2021/05/22 00:10:55;;;;;;;;;;;;;;;22.16;61.93;100629.06;5053755;28;1351;-66
2021/05/22 00:13:41;;;;;;;;;;;;;;;22.16;62.13;100621.09;5069287;28;1053;-67
2021/05/22 00:16:26;;;;;;;;;;;;;;;22.15;62.15;100616.78;5068781;28;1288;-67
2021/05/22 00:19:11;;;;;;;;;;;;;;;22.15;62.03;100613.25;5068703;28;1980;-67
2021/05/22 00:21:56;;;;;;;;;;;;;;;22.15;61.95;100619.44;5068539;28;1281;-66
2021/05/22 00:24:42;;;;;;;;;;;;;;;22.15;62.18;100630.03;5068549;28;723;-66
2021/05/22 00:27:27;;;;;;;;;;;;;;;22.14;62.25;100628.34;5068835;28;1284;-65
2021/05/22 00:30:13;;;;;;;;;;;;;;;22.15;62.10;100627.38;5068550;28;644;-67
2021/05/22 00:32:58;;;;;;;;;;;;;;;22.16;62.05;100625.59;5068680;28;1190;-67
2021/05/22 00:35:43;;;;;;;;;;;;;;;22.14;62.11;100615.06;5068266;28;1260;-66
2021/05/22 00:38:29;;;;;;;;;;;;;;;22.15;62.11;100618.56;5048772;28;1910;-67
2021/05/22 00:41:14;;;;;;;;;;;;;;;22.15;62.26;100629.19;5048532;28;1284;-67
2021/05/22 00:44:00;;;;;;;;;;;;;;;22.14;61.95;100612.41;5049227;28;1042;-65
2021/05/22 00:46:45;;;;;;;;;;;;;;;22.14;61.89;100617.72;5052312;28;1382;-67
2021/05/22 00:49:30;;;;;;;;;;;;;;;22.14;62.06;100609.75;5052235;28;747;-67
2021/05/22 00:52:15;;;;;;;;;;;;;;;22.14;62.29;100612.41;5051876;28;1381;-68
2021/05/22 00:55:00;;;;;;;;;;;;;;;22.14;62.06;100615.06;5052058;28;609;-66
2021/05/22 00:57:46;;;;;;;;;;;;;;;22.13;62.01;100616.00;5051918;28;1049;-66
2021/05/22 01:00:44;;;;;;;;;;;;;;;22.15;62.21;100622.06;5051928;28;1980;-67
2021/05/22 01:03:32;;;;;;;;;;;;;;;22.14;62.28;100616.88;5036677;28;1063;-67
2021/05/22 01:06:17;;;;;;;;;;;;;;;22.13;62.08;100623.97;5051801;28;1285;-65
2021/05/22 01:09:09;;;;;;;;;;;;;;;22.13;62.41;100623.97;5051828;28;1026;-65
2021/05/22 01:11:56;;;;;;;;;;;;;;;22.13;62.45;100615.19;5051602;28;1284;-67
2021/05/22 01:14:46;;;;;;;;;;;;;;;22.12;62.14;100624.94;5050267;28;704;-65
2021/05/22 01:17:32;;;;;;;;;;;;;;;22.13;62.11;100623.16;5036133;28;1431;-64
2021/05/22 01:20:36;;;;;;;;;;;;;;;22.11;62.36;100623.25;5051552;28;1929;-67
2021/05/22 01:23:26;;;;;;;;;;;;;;;22.12;62.16;100634.72;5051269;28;1113;-65
2021/05/22 01:26:12;;;;;;;;;;;;;;;22.12;62.40;100629.41;5051163;28;1357;-66
2021/05/22 01:28:58;;;;;;;;;;;;;;;22.12;62.26;100635.56;5051578;28;1161;-65
2021/05/22 01:31:44;;;;;;;;;;;;;;;22.11;62.42;100639.16;5051195;28;1254;-68
2021/05/22 01:34:29;;;;;;;;;;;;;;;22.11;62.41;100643.63;5050094;28;636;-64
2021/05/22 01:37:15;;;;;;;;;;;;;;;22.11;62.21;100627.69;5060871;28;1272;-66
2021/05/22 01:40:00;;;;;;;;;;;;;;;22.10;62.63;100634.81;5055667;28;1961;-67
2021/05/22 01:42:45;;;;;;;;;;;;;;;22.10;62.57;100626.84;5071156;28;966;-67
2021/05/22 01:45:41;;;;;;;;;;;;;;;22.09;62.35;100619.88;5070928;28;1276;-65
2021/05/22 01:48:27;;;;;;;;;;;;;;;22.08;62.37;100615.50;5071199;28;1068;-66
2021/05/22 01:51:14;;;;;;;;;;;;;;;22.09;62.16;100611.06;5070803;28;1287;-66
2021/05/22 01:54:00;;;;;;;;;;;;;;;22.08;62.13;100607.56;5071184;28;1073;-66
2021/05/22 01:56:46;;;;;;;;;;;;;;;22.08;62.21;100599.59;5070083;28;1280;-66
2021/05/22 01:59:33;;;;;;;;;;;;;;;22.08;62.38;100599.59;5072263;28;1902;-66
2021/05/22 02:02:19;;;;;;;;;;;;;;;22.08;62.10;100596.94;5057195;28;1276;-67
2021/05/22 02:05:06;;;;;;;;;;;;;;;22.09;62.01;100603.97;5072068;28;802;-66
2021/05/22 02:07:52;;;;;;;;;;;;;;;22.08;62.32;100604.91;5070583;28;1578;-67
2021/05/22 02:10:38;;;;;;;;;;;;;;;22.08;62.01;100618.16;5070401;28;1327;-67
2021/05/22 02:13:23;;;;;;;;;;;;;;;22.07;61.98;100608.50;5070567;28;977;-67
2021/05/22 02:16:10;;;;;;;;;;;;;;;22.07;61.95;100589.13;5069980;28;1350;-66
2021/05/22 02:18:58;;;;;;;;;;;;;;;22.07;62.26;100597.91;5070347;28;1976;-65
2021/05/22 02:21:44;;;;;;;;;;;;;;;22.07;61.96;100616.47;5069917;28;1299;-66
2021/05/22 02:24:30;;;;;;;;;;;;;;;22.07;61.86;100621.78;5069908;28;734;-67
2021/05/22 02:27:16;;;;;;;;;;;;;;;22.06;61.89;100628.06;5070221;28;1283;-66
2021/05/22 02:30:05;;;;;;;;;;;;;;;22.06;62.06;100625.41;5069951;28;796;-67
2021/05/22 02:32:51;;;;;;;;;;;;;;;22.07;61.84;100621.78;5070334;28;1182;-67
2021/05/22 02:35:40;;;;;;;;;;;;;;;22.06;61.69;100649.28;5069795;28;1341;-66
2021/05/22 02:38:26;;;;;;;;;;;;;;;22.06;61.79;100651.06;5069993;28;1516;-67
2021/05/22 02:41:12;;;;;;;;;;;;;;;22.07;61.84;100632.38;5069437;28;1962;-66
2021/05/22 02:43:58;;;;;;;;;;;;;;;22.05;61.95;100601.63;5070009;28;1129;-66
2021/05/22 02:46:46;;;;;;;;;;;;;;;22.04;61.66;100598.13;5069503;28;1283;-67
2021/05/22 02:49:37;;;;;;;;;;;;;;;22.05;61.65;100601.63;5054275;28;615;-64
2021/05/22 02:52:22;;;;;;;;;;;;;;;22.05;61.83;100597.16;5069387;28;1292;-65
2021/05/22 02:55:12;;;;;;;;;;;;;;;22.05;61.66;100591.88;5069331;28;766;-66
2021/05/22 02:57:58;;;;;;;;;;;;;;;22.05;61.80;100597.16;5069532;28;1115;-66
2021/05/22 03:00:44;;;;;;;;;;;;;;;22.05;61.65;100606.94;5069139;28;1969;-66
2021/05/22 03:03:29;;;;;;;;;;;;;;;22.05;61.71;100606.94;5069480;28;1057;-67
2021/05/22 03:06:15;;;;;;;;;;;;;;;22.05;61.57;100612.22;5069534;28;1357;-67
2021/05/22 03:09:00;;;;;;;;;;;;;;;22.05;61.55;100601.63;5069476;28;1168;-67
2021/05/22 03:11:46;;;;;;;;;;;;;;;22.04;61.72;100594.66;5053801;28;1363;-67
2021/05/22 03:14:31;;;;;;;;;;;;;;;22.03;61.46;100599.09;5069188;28;772;-66
2021/05/22 03:17:16;;;;;;;;;;;;;;;22.04;61.70;100602.59;5069362;28;1337;-67
2021/05/22 03:20:03;;;;;;;;;;;;;;;22.03;61.33;100596.44;5069060;28;1914;-67
2021/05/22 03:22:49;;;;;;;;;;;;;;;22.02;61.33;100597.41;5069225;28;1127;-67
2021/05/22 03:25:34;;;;;;;;;;;;;;;22.03;61.43;100599.09;5069525;28;1381;-67
2021/05/22 03:28:20;;;;;;;;;;;;;;;22.03;61.37;100598.25;5069481;28;1048;-68
2021/05/22 03:31:06;;;;;;;;;;;;;;;22.02;61.65;100597.41;5068962;28;1357;-67
2021/05/22 03:33:51;;;;;;;;;;;;;;;22.02;61.54;100591.25;5069330;28;1053;-68
2021/05/22 03:36:36;;;;;;;;;;;;;;;22.01;61.38;100593.03;5068765;28;1441;-68
2021/05/22 03:39:22;;;;;;;;;;;;;;;22.01;61.57;100600.19;5053680;28;1971;-67
2021/05/22 03:42:08;;;;;;;;;;;;;;;22.01;61.59;100606.31;5053754;28;1307;-67
2021/05/22 03:44:53;;;;;;;;;;;;;;;22.01;61.61;100601.00;5053603;28;664;-67
2021/05/22 03:47:38;;;;;;;;;;;;;;;22.02;61.54;100612.47;5068938;28;1370;-67
2021/05/22 03:50:23;;;;;;;;;;;;;;;22.01;61.50;100624.88;5068980;28;1281;-66
2021/05/22 03:53:09;;;;;;;;;;;;;;;22.01;61.52;100624.88;5069369;28;1013;-67
2021/05/22 03:55:57;;;;;;;;;;;;;;;21.95;61.74;100612.03;5053722;28;1279;-67
2021/05/22 03:58:42;;;;;;;;;;;;;;;22.01;61.53;100616.91;5069297;28;946;-67
2021/05/22 04:01:28;;;;;;;;;;;;;;;21.98;61.51;100619.78;5068975;28;1965;-67
2021/05/22 04:04:13;;;;;;;;;;;;;;;22.00;61.45;100609.94;5054001;28;620;-66
2021/05/22 04:06:58;;;;;;;;;;;;;;;21.98;61.80;100606.53;5069019;28;1338;-66
2021/05/22 04:09:44;;;;;;;;;;;;;;;21.98;61.64;100600.41;5068691;28;773;-66
2021/05/22 04:12:29;;;;;;;;;;;;;;;21.98;61.52;100603.88;5068616;28;1320;-67
2021/05/22 04:15:15;;;;;;;;;;;;;;;21.98;61.63;100614.47;5053681;28;667;-67
2021/05/22 04:18:01;;;;;;;;;;;;;;;21.99;61.60;100617.97;5068800;28;1128;-66
2021/05/22 04:20:46;;;;;;;;;;;;;;;21.98;61.69;100625.09;5072133;28;1922;-67
2021/05/22 04:23:31;;;;;;;;;;;;;;;21.98;61.60;100616.31;5072968;28;1054;-66
2021/05/22 04:26:17;;;;;;;;;;;;;;;21.98;61.62;100611.81;5072442;28;1339;-67
2021/05/22 04:29:02;;;;;;;;;;;;;;;21.97;61.74;100611.94;5072849;28;996;-67
2021/05/22 04:31:48;;;;;;;;;;;;;;;21.97;61.54;100619.91;5072260;28;1354;-66
2021/05/22 04:34:34;;;;;;;;;;;;;;;21.98;61.69;100627.75;5072564;28;620;-66
2021/05/22 04:37:19;;;;;;;;;;;;;;;21.98;61.13;100619.78;5072363;28;1553;-66
2021/05/22 04:40:06;;;;;;;;;;;;;;;21.98;61.55;100626.91;5071935;28;1963;-66
2021/05/22 04:42:51;;;;;;;;;;;;;;;21.98;61.32;100625.09;5072334;28;1135;-66
2021/05/22 04:45:36;;;;;;;;;;;;;;;21.97;61.52;100626.06;5072219;28;1283;-65
2021/05/22 04:48:21;;;;;;;;;;;;;;;21.97;61.59;100636.69;5072290;28;1033;-66
2021/05/22 04:51:07;;;;;;;;;;;;;;;21.96;61.58;100627.00;5071804;28;1282;-66
2021/05/22 04:53:59;;;;;;;;;;;;;;;21.96;61.55;100636.78;5056770;28;1133;-66
2021/05/22 04:56:45;;;;;;;;;;;;;;;21.96;61.52;100645.56;5071611;28;1359;-66
2021/05/22 04:59:30;;;;;;;;;;;;;;;21.96;61.64;100652.69;5071866;28;1965;-66
2021/05/22 05:02:15;;;;;;;;;;;;;;;21.95;61.66;100662.44;5071775;28;1390;-66
2021/05/22 05:05:01;;;;;;;;;;;;;;;21.96;61.67;100664.16;5071645;28;714;-66
2021/05/22 05:07:46;;;;;;;;;;;;;;;21.96;61.54;100665.94;5071712;28;1101;-66
2021/05/22 05:10:31;;;;;;;;;;;;;;;21.95;61.17;100674.84;5071415;28;1231;-65
2021/05/22 05:13:17;;;;;;;;;;;;;;;21.95;61.42;100680.16;5071707;28;1025;-66
2021/05/22 05:16:03;;;;;;;;;;;;;;;21.96;61.40;100682.72;5071363;28;1256;-65
2021/05/22 05:18:48;;;;;;;;;;;;;;;21.94;61.56;100673.16;5071059;28;1021;-66
2021/05/22 05:21:34;;;;;;;;;;;;;;;21.94;61.34;100683.78;5071137;28;1898;-65
2021/05/22 05:24:19;;;;;;;;;;;;;;;21.93;61.40;100682.06;5071074;28;702;-66
2021/05/22 05:27:04;;;;;;;;;;;;;;;21.94;61.75;100689.94;5071236;28;1367;-66
2021/05/22 05:29:50;;;;;;;;;;;;;;;21.95;61.67;100688.97;5070776;28;668;-64
2021/05/22 05:32:34;;;;;;;;;;;;;;;21.94;61.33;100676.69;5071240;28;1295;-65
2021/05/22 05:35:20;;;;;;;;;;;;;;;21.94;61.39;100689.94;5070854;28;1357;-65
2021/05/22 05:38:05;;;;;;;;;;;;;;;21.93;61.56;100688.22;5070771;28;1187;-64
2021/05/22 05:40:57;;;;;;;;;;;;;;;21.92;61.58;100694.47;5070736;28;1965;-64
2021/05/22 05:43:42;;;;;;;;;;;;;;;21.93;61.61;100701.50;5055841;28;929;-65
2021/05/22 05:46:28;;;;;;;;;;;;;;;21.92;61.13;100701.59;5070855;28;1292;-64
2021/05/22 05:49:13;;;;;;;;;;;;;;;21.93;61.27;100696.19;5071044;28;628;-66
2021/05/22 05:51:58;;;;;;;;;;;;;;;21.94;61.41;100700.53;5070647;28;1272;-65
2021/05/22 05:54:44;;;;;;;;;;;;;;;21.94;61.35;100716.47;5070390;28;1573;-69
2021/05/22 05:57:29;;;;;;;;;;;;;;;21.94;61.49;100715.59;5069630;28;1339;-68
2021/05/22 06:00:14;;;;;;;;;;;;;;;21.94;61.33;100716.47;5070732;28;1902;-68
2021/05/22 06:03:01;;;;;;;;;;;;;;;21.94;61.23;100716.47;5069648;28;1270;-69
2021/05/22 06:05:46;;;;;;;;;;;;;;;21.94;61.23;100715.59;5069485;28;1284;-66
2021/05/22 06:08:31;;;;;;;;;;;;;;;21.94;61.38;100711.16;5069724;28;1103;-66
2021/05/22 06:11:18;;;;;;;;;;;;;;;21.94;61.67;100708.50;5068924;28;1232;-66
2021/05/22 06:14:09;;;;;;;;;;;;;;;21.94;61.40;100713.81;5069735;28;1010;-68
2021/05/22 06:16:55;;;;;;;;;;;;;;;21.94;61.47;100716.47;5069457;28;1374;-67
2021/05/22 06:19:40;;;;;;;;;;;;;;;21.93;61.32;100728.00;5069567;28;652;-66
2021/05/22 06:22:26;;;;;;;;;;;;;;;21.93;61.43;100727.16;5069539;28;1268;-66
2021/05/22 06:25:12;;;;;;;;;;;;;;;21.94;61.59;100728.88;5069551;28;605;-66
2021/05/22 06:27:58;;;;;;;;;;;;;;;21.94;61.24;100742.13;5070320;28;1330;-65
2021/05/22 06:30:43;;;;;;;;;;;;;;;21.94;61.46;100736.81;5069915;28;1374;-65
2021/05/22 06:33:28;;;;;;;;;;;;;;;21.94;61.38;100737.69;5070221;28;1044;-65
2021/05/22 06:36:14;;;;;;;;;;;;;;;21.94;61.65;100735.03;5068934;28;1283;-65
2021/05/22 06:38:59;;;;;;;;;;;;;;;21.95;61.16;100738.50;5069157;28;1109;-64
2021/05/22 06:41:44;;;;;;;;;;;;;;;21.95;61.54;100749.97;5067853;28;1967;-66
2021/05/22 06:45:15;;;;;;;;;;;;;;;21.94;61.56;100742.13;5068557;28;695;-68
2021/05/22 06:47:38;;;;;;;;;;;;;;;21.92;61.29;100750.16;5068398;28;1839;-65
2021/05/22 06:50:23;;;;;;;;;;;;;;;21.92;61.42;100744.88;5068692;28;1271;-67
2021/05/22 06:53:12;;;;;;;;;;;;;;;21.94;61.44;100742.13;5054045;28;1504;-69
2021/05/22 06:55:58;;;;;;;;;;;;;;;21.93;61.24;100754.53;5068354;28;1252;-68
2021/05/22 06:58:43;;;;;;;;;;;;;;;21.95;61.25;100757.06;5068853;28;1071;-66
2021/05/22 07:01:29;;;;;;;;;;;;;;;21.93;61.43;100762.50;5068186;28;1971;-67
2021/05/22 07:04:14;;;;;;;;;;;;;;;21.93;61.35;100757.19;5068854;28;663;-66
2021/05/22 07:07:00;;;;;;;;;;;;;;;21.94;61.88;100763.34;5068636;28;1315;-66
2021/05/22 07:09:45;;;;;;;;;;;;;;;21.97;61.63;100763.97;5068589;28;719;-67
2021/05/22 07:12:30;;;;;;;;;;;;;;;22.02;61.50;100775.09;5068468;28;1284;-66
2021/05/22 07:15:16;;;;;;;;;;;;;;;22.01;61.46;100773.41;5068577;28;632;-65
2021/05/22 07:18:02;;;;;;;;;;;;;;;21.99;61.36;100775.31;5068308;28;1060;-66
2021/05/22 07:20:47;;;;;;;;;;;;;;;22.01;61.59;100765.44;5066598;28;2031;-67
2021/05/22 07:23:33;;;;;;;;;;;;;;;22.00;61.21;100773.53;5066974;28;1297;-66
2021/05/22 07:26:18;;;;;;;;;;;;;;;21.99;61.13;100767.38;5046368;28;1275;-64
2021/05/22 07:29:04;;;;;;;;;;;;;;;21.98;61.23;100781.56;5055362;28;1305;-63
2021/05/22 07:31:51;;;;;;;;;;;;;;;21.99;61.61;100780.63;5064505;28;1304;-64
2021/05/22 07:34:41;;;;;;;;;;;;;;;21.99;61.46;100777.97;5064502;28;1639;-65
2021/05/22 07:37:27;;;;;;;;;;;;;;;21.98;61.67;100784.22;5040048;28;1323;-65
2021/05/22 07:40:13;;;;;;;;;;;;;;;22.00;61.63;100787.63;5071566;28;1902;-66
2021/05/22 07:43:01;;;;;;;;;;;;;;;21.99;61.39;100782.44;5071196;28;1272;-65
2021/05/22 07:45:47;;;;;;;;;;;;;;;21.99;61.61;100783.28;5066665;28;1225;-65
2021/05/22 07:48:32;;;;;;;;;;;;;;;21.98;62.13;100781.56;5051351;28;1214;-63
2021/05/22 07:51:18;;;;;;;;;;;;;;;22.00;62.14;100779.69;5079668;28;1390;-64
2021/05/22 07:54:04;;;;;;;;;;;;;;;22.04;61.89;100775.00;5061743;28;1563;-65
2021/05/22 07:56:49;;;;;;;;;;;;;;;22.12;61.71;100791.22;5060158;28;1346;-65
2021/05/22 07:59:35;;;;;;;;;;;;;;;22.11;61.55;100787.72;5066127;28;731;-63
2021/05/22 08:02:20;;;;;;;;;;;;;;;22.10;61.84;100780.72;5066494;28;1918;-64
2021/05/22 08:05:06;;;;;;;;;;;;;;;22.10;61.82;100780.72;5066292;28;700;-64
2021/05/22 08:07:51;;;;;;;;;;;;;;;22.09;61.60;100789.66;5075248;28;1190;-64
2021/05/22 08:10:37;;;;;;;;;;;;;;;22.07;61.84;100783.56;5086153;28;1343;-64
2021/05/22 08:13:27;;;;;;;;;;;;;;;22.08;61.78;100782.63;5086688;28;980;-65
2021/05/22 08:16:13;;;;;;;;;;;;;;;22.00;59.67;100784.97;5086495;28;1271;-67
2021/05/22 08:18:58;;;;;;;;;;;;;;;21.97;59.45;100779.03;5072847;28;1546;-68
2021/05/22 08:21:44;;;;;;;;;;;;;;;22.06;60.15;100771.28;5066620;28;1957;-67
2021/05/22 08:24:29;;;;;;;;;;;;;;;22.04;58.29;100775.00;5051973;28;685;-65
2021/05/22 08:27:17;;;;;;;;;;;;;;;22.02;59.34;100776.91;5066383;28;1381;-65
2021/05/22 08:30:13;;;;;;;;;;;;;;;21.97;57.67;100769.28;5067463;28;765;-67
2021/05/22 08:32:58;;;;;;;;;;;;;;;21.99;57.92;100771.81;5050652;28;1079;-66
2021/05/22 08:35:44;;;;;;;;;;;;;;;22.04;59.06;100775.84;5065671;28;1380;-64
2021/05/22 08:38:29;;;;;;;;;;;;;;;22.05;57.83;100768.72;5067201;28;1200;-66
2021/05/22 08:41:16;;;;;;;;;;;;;;;22.13;59.20;100763.75;5067307;28;1914;-66
2021/05/22 08:44:02;;;;;;;;;;;;;;;22.08;58.28;100761.41;5068269;28;1064;-68
2021/05/22 08:46:47;;;;;;;;;;;;;;;22.07;58.96;100765.00;5051684;28;1370;-68
2021/05/22 08:49:40;;;;;;;;;;;;;;;22.04;58.16;100748.50;5067859;28;659;-70
2021/05/22 08:52:26;;;;;;;;;;;;;;;22.05;58.03;100748.38;5068456;28;1321;-67
2021/05/22 08:55:13;;;;;;;;;;;;;;;22.10;59.25;100748.88;5067898;28;1539;-65
2021/05/22 08:57:58;;;;;;;;;;;;;;;22.21;59.53;100751.63;5031445;28;988;-66
2021/05/22 09:00:43;;;;;;;;;;;;;;;22.18;58.61;100756.31;5046311;28;1969;-63
2021/05/22 09:03:29;;;;;;;;;;;;;;;22.10;57.20;100750.72;5046666;28;1024;-63
2021/05/22 09:06:14;;;;;;;;;;;;;;;22.12;59.66;100754.09;5048524;28;1358;-64
2021/05/22 09:09:01;;;;;;;;;;;;;;;21.95;58.29;100760.56;5052722;28;1575;-61
2021/05/22 09:11:47;;;;;;;;;;;;;;;21.95;57.50;100759.72;5049504;28;1234;-63
2021/05/22 09:14:48;;;;;;;;;;;;;;;21.89;57.78;100761.00;5051734;28;672;-62
2021/05/22 09:17:33;;;;;;;;;;;;;;;21.78;57.90;100764.38;5054552;28;1308;-64
2021/05/22 09:20:25;;;;;;;;;;;;;;;21.84;57.68;100779.00;5070260;28;1346;-63
2021/05/22 09:23:11;;;;;;;;;;;;;;;21.83;57.80;100774.66;5070365;28;1115;-64
2021/05/22 09:26:01;;;;;;;;;;;;;;;21.83;57.83;100785.25;5070599;28;1282;-62
2021/05/22 09:28:53;;;;;;;;;;;;;;;21.84;57.83;100786.97;5070349;28;1507;-63
2021/05/22 09:31:38;;;;;;;;;;;;;;;21.77;56.56;100793.63;5069804;28;1274;-63
2021/05/22 09:34:27;;;;;;;;;;;;;;;21.82;57.14;100802.13;5069332;28;624;-62
2021/05/22 09:37:13;;;;;;;;;;;;;;;21.80;57.24;100801.38;5069181;28;1412;-63
2021/05/22 09:39:58;;;;;;;;;;;;;;;21.78;56.91;100805.94;5068940;28;667;-63
2021/05/22 09:42:44;;;;;;;;;;;;;;;21.83;57.71;100801.16;5068766;28;1914;-63
2021/05/22 09:45:32;;;;;;;;;;;;;;;21.78;57.00;100812.09;5069790;28;1240;-64
2021/05/22 09:48:24;;;;;;;;;;;;;;;21.78;56.68;100801.50;5070847;28;1041;-64
2021/05/22 09:51:09;;;;;;;;;;;;;;;21.79;57.26;100802.34;5070615;28;1347;-64
2021/05/22 09:53:55;;;;;;;;;;;;;;;21.75;56.90;100800.84;5070961;28;1110;-64
2021/05/22 09:56:47;;;;;;;;;;;;;;;21.72;57.32;100804.56;5055593;28;1373;-64
2021/05/22 09:59:33;;;;;;;;;;;;;;;21.82;56.84;100801.28;5070659;28;741;-64
2021/05/22 10:02:37;;;;;;;;;;;;;;;21.83;57.24;100817.06;5070173;28;1906;-63
2021/05/22 10:05:22;;;;;;;;;;;;;;;21.78;57.27;100817.41;5070286;28;1314;-64
2021/05/22 10:08:17;;;;;;;;;;;;;;;21.80;57.41;100811.97;5055263;28;1268;-63
2021/05/22 10:11:03;;;;;;;;;;;;;;;21.78;57.41;100816.56;5070062;28;1277;-63
2021/05/22 10:13:48;;;;;;;;;;;;;;;21.80;56.71;100819.94;5055133;28;1137;-63
2021/05/22 10:16:33;;;;;;;;;;;;;;;21.75;56.76;100816.75;5069557;28;1351;-64
2021/05/22 10:19:19;;;;;;;;;;;;;;;21.74;56.87;100815.91;5070049;28;699;-64
2021/05/22 10:22:05;;;;;;;;;;;;;;;21.77;56.58;100820.16;5054740;28;1906;-64
2021/05/22 10:24:52;;;;;;;;;;;;;;;21.72;57.23;100828.44;5070057;28;640;-63
2021/05/22 10:27:38;;;;;;;;;;;;;;;21.78;57.29;100825.34;5069581;28;1305;-61
2021/05/22 10:30:24;;;;;;;;;;;;;;;21.76;56.74;100829.06;5054658;28;1380;-63
2021/05/22 10:33:10;;;;;;;;;;;;;;;21.71;56.81;100826.72;5068777;28;1024;-62
2021/05/22 10:35:56;;;;;;;;;;;;;;;21.74;56.83;100820.34;5068031;28;1358;-64
2021/05/22 10:38:44;;;;;;;;;;;;;;;21.68;56.80;100837.53;5070007;28;1085;-64
2021/05/22 10:41:38;;;;;;;;;;;;;;;21.71;56.92;100841.78;5069437;28;1959;-62
2021/05/22 10:44:32;;;;;;;;;;;;;;;21.70;57.18;100840.91;5054342;28;715;-65
2021/05/22 10:47:19;;;;;;;;;;;;;;;21.71;56.85;100839.97;5069248;28;1295;-62
2021/05/22 10:50:05;;;;;;;;;;;;;;;21.74;56.93;100849.53;5054249;28;727;-64
2021/05/22 10:53:10;;;;;;;;;;;;;;;21.72;56.93;100843.47;5069359;28;1502;-63
2021/05/22 10:56:11;;;;;;;;;;;;;;;21.69;56.69;100838.38;5069291;28;1272;-63
2021/05/22 10:58:59;;;;;;;;;;;;;;;21.70;56.72;100845.41;5069736;28;1062;-63
2021/05/22 11:01:46;;;;;;;;;;;;;;;21.72;56.91;100843.47;5069262;28;1910;-63
2021/05/22 11:04:32;;;;;;;;;;;;;;;21.71;56.87;100855.88;5068999;28;722;-61
2021/05/22 11:07:18;;;;;;;;;;;;;;;21.68;56.60;100852.59;5069127;28;1236;-64
2021/05/22 11:10:04;;;;;;;;;;;;;;;21.68;56.67;100852.59;5069193;28;609;-64
2021/05/22 11:12:50;;;;;;;;;;;;;;;21.71;57.50;100855.03;5053808;28;1027;-64
2021/05/22 11:15:39;;;;;;;;;;;;;;;21.70;56.99;100851.53;5069264;28;1380;-63
2021/05/22 11:18:25;;;;;;;;;;;;;;;21.68;56.27;100847.28;5068866;28;1037;-65
2021/05/22 11:21:16;;;;;;;;;;;;;;;21.70;56.24;100840.91;5068719;28;1910;-63
2021/05/22 11:24:03;;;;;;;;;;;;;;;21.70;56.73;100840.09;5069365;28;1108;-63
2021/05/22 11:26:49;;;;;;;;;;;;;;;21.74;56.59;100836.25;5053610;28;1277;-64
2021/05/22 11:29:50;;;;;;;;;;;;;;;21.71;56.27;100829.38;5068840;28;683;-63
2021/05/22 11:32:45;;;;;;;;;;;;;;;21.73;56.30;100831.94;5068781;28;1283;-64
2021/05/22 11:35:31;;;;;;;;;;;;;;;21.72;55.92;100828.44;5068769;28;1224;-64
2021/05/22 11:38:17;;;;;;;;;;;;;;;21.74;56.55;100826.50;5068501;28;1938;-65
2021/05/22 11:41:14;;;;;;;;;;;;;;;21.75;55.86;100819.41;5068546;28;1906;-65
2021/05/22 11:44:06;;;;;;;;;;;;;;;21.73;56.09;100819.50;5068988;28;1133;-64
2021/05/22 11:46:52;;;;;;;;;;;;;;;21.74;56.36;100818.56;5068656;28;1265;-63
2021/05/22 11:49:37;;;;;;;;;;;;;;;21.76;56.12;100813.16;5053360;28;625;-65
2021/05/22 11:52:29;;;;;;;;;;;;;;;21.79;56.17;100812.97;5068537;28;1271;-64
2021/05/22 11:55:16;;;;;;;;;;;;;;;21.82;56.88;100806.59;5068512;28;640;-64
2021/05/22 11:58:02;;;;;;;;;;;;;;;21.82;56.38;100806.59;5068699;28;1128;-65
2021/05/22 12:00:48;;;;;;;;;;;;;;;21.88;57.09;100800.88;5052591;28;1576;-65
2021/05/22 12:03:36;;;;;;;;;;;;;;;21.95;57.35;100802.16;5066600;28;1115;-66
2021/05/22 12:06:22;;;;;;;;;;;;;;;21.96;57.08;100801.19;5054263;28;1394;-68
2021/05/22 12:09:11;;;;;;;;;;;;;;;21.96;57.57;100798.56;5063968;28;1138;-69
2021/05/22 12:11:59;;;;;;;;;;;;;;;22.01;58.07;100791.16;5067298;28;1435;-69
2021/05/22 12:14:47;;;;;;;;;;;;;;;22.07;58.44;100788.88;5047399;28;727;-69
2021/05/22 12:17:42;;;;;;;;;;;;;;;22.10;57.26;100783.38;5047141;28;1296;-68
2021/05/22 12:20:28;;;;;;;;;;;;;;;22.07;57.63;100788.88;5046945;28;1373;-66
2021/05/22 12:23:26;;;;;;;;;;;;;;;21.97;54.67;100785.19;5047142;28;1976;-68
2021/05/22 12:26:11;;;;;;;;;;;;;;;21.93;54.65;100794.31;5046873;28;1375;-65
2021/05/22 12:28:57;;;;;;;;;;;;;;;21.85;54.10;100787.81;5032024;28;1210;-66
2021/05/22 12:31:46;;;;;;;;;;;;;;;21.99;53.09;100785.06;5059762;28;1372;-64
2021/05/22 12:34:32;;;;;;;;;;;;;;;22.01;53.38;100776.06;5065177;28;835;-64
2021/05/22 12:37:19;;;;;;;;;;;;;;;22.09;52.75;100771.06;5066700;28;1582;-63
2021/05/22 12:40:06;;;;;;;;;;;;;;;21.98;52.61;100770.97;5066669;28;1241;-64
2021/05/22 12:42:52;;;;;;;;;;;;;;;22.10;52.53;100770.09;5055035;28;1972;-67
2021/05/22 12:45:42;;;;;;;;;;;;;;;22.03;51.97;100773.31;5054279;28;1283;-64
2021/05/22 12:48:28;;;;;;;;;;;;;;;22.04;51.81;100773.19;5069757;28;1064;-66
2021/05/22 12:51:21;;;;;;;;;;;;;;;22.08;52.22;100765.88;5067752;28;1315;-70
2021/05/22 12:54:27;;;;;;;;;;;;;;;22.01;52.27;100776.06;5051366;28;1093;-66
2021/05/22 12:57:12;;;;;;;;;;;;;;;22.09;51.93;100778.19;5067352;28;1315;-67
2021/05/22 12:59:58;;;;;;;;;;;;;;;22.09;51.43;100773.72;5066630;28;1091;-70
2021/05/22 13:02:50;;;;;;;;;;;;;;;22.10;51.45;100774.59;5066918;28;1957;-66
2021/05/22 13:05:36;;;;;;;;;;;;;;;22.16;51.58;100779.47;5068466;28;1279;-65
2021/05/22 13:08:25;;;;;;;;;;;;;;;22.12;51.27;100781.47;5067402;28;1070;-65
2021/05/22 13:11:13;;;;;;;;;;;;;;;22.10;52.24;100785.19;5068368;28;1327;-65
2021/05/22 13:14:02;;;;;;;;;;;;;;;22.07;51.70;100780.94;5066309;28;1044;-63
2021/05/22 13:16:54;;;;;;;;;;;;;;;22.09;51.38;100776.38;5066436;28;1400;-63
2021/05/22 13:19:44;;;;;;;;;;;;;;;22.22;51.52;100779.03;5068183;28;1013;-65
2021/05/22 13:22:34;;;;;;;;;;;;;;;22.32;52.40;100786.19;5068568;28;1991;-68
2021/05/22 13:25:20;;;;;;;;;;;;;;;22.34;53.28;100775.50;5065742;28;1329;-64
2021/05/22 13:28:06;;;;;;;;;;;;;;;22.31;55.83;100784.50;5066935;28;1059;-66
2021/05/22 13:31:02;;;;;;;;;;;;;;;22.31;56.01;100773.88;5066226;28;1398;-63
2021/05/22 13:33:54;;;;;;;;;;;;;;;22.38;57.02;100774.28;5065946;28;1036;-64
2021/05/22 13:36:40;;;;;;;;;;;;;;;22.42;56.89;100775.78;5050653;28;1652;-66
2021/05/22 13:39:25;;;;;;;;;;;;;;;22.49;57.01;100770.88;5066738;28;1067;-68
2021/05/22 13:42:13;;;;;;;;;;;;;;;22.53;57.34;100773.19;5066090;28;1991;-66
2021/05/22 13:44:58;;;;;;;;;;;;;;;22.37;57.38;100762.00;5057149;28;1194;-67
2021/05/22 13:47:43;;;;;;;;;;;;;;;22.36;55.46;100762.94;5042027;28;1179;-67
2021/05/22 13:50:29;;;;;;;;;;;;;;;22.37;55.57;100764.66;5059440;28;1367;-67
2021/05/22 13:53:14;;;;;;;;;;;;;;;22.34;55.10;100757.75;5058702;28;1235;-67
2021/05/22 13:55:59;;;;;;;;;;;;;;;22.32;55.74;100772.09;5058283;28;1416;-66
2021/05/22 13:58:44;;;;;;;;;;;;;;;22.31;55.65;100763.25;5059217;28;1151;-68
2021/05/22 14:01:30;;;;;;;;;;;;;;;22.29;55.30;100770.50;5059071;28;1392;-68
2021/05/22 14:04:15;;;;;;;;;;;;;;;22.31;55.38;100763.25;5044074;28;1200;-68
2021/05/22 14:07:00;;;;;;;;;;;;;;;22.31;55.48;100757.97;5059413;28;1325;-68
2021/05/22 14:09:46;;;;;;;;;;;;;;;22.30;55.52;100764.25;5059062;28;1199;-71
2021/05/22 14:12:31;;;;;;;;;;;;;;;22.31;55.32;100773.06;5061658;28;1268;-71
2021/05/22 14:15:17;;;;;;;;;;;;;;;22.31;55.67;100773.88;5059169;28;1051;-69
2021/05/22 14:18:05;;;;;;;;;;;;;;;22.28;54.73;100775.94;5058961;28;1151;-70
2021/05/22 14:20:51;;;;;;;;;;;;;;;22.26;54.55;100780.47;5059012;28;1436;-70
2021/05/22 14:23:37;;;;;;;;;;;;;;;22.27;55.78;100783.03;5058814;28;1969;-69
2021/05/22 14:26:23;;;;;;;;;;;;;;;22.25;54.67;100774.31;5058742;28;1320;-69
2021/05/22 14:29:08;;;;;;;;;;;;;;;22.27;55.05;100777.72;5058008;28;1202;-69
2021/05/22 14:31:53;;;;;;;;;;;;;;;22.26;55.20;100775.16;5058617;28;1501;-68